createdAt,value
2023-02-23T00:01:42.547Z,10.20
2023-02-23T00:04:09.315Z,10.20
2023-02-23T00:06:37.388Z,10.20
2023-02-23T00:09:24.168Z,10.20
2023-02-23T00:11:53.216Z,10.20
2023-02-23T00:14:20.206Z,10.10
2023-02-23T00:16:46.823Z,10.10
2023-02-23T00:19:14.119Z,10.20
2023-02-23T00:21:41.698Z,10.20
2023-02-23T00:24:11.672Z,10.20
2023-02-23T00:26:39.746Z,10.10
2023-02-23T00:29:12.481Z,10.10
2023-02-23T00:31:39.844Z,10.10
2023-02-23T00:34:07.578Z,10.10
2023-02-23T00:36:36.032Z,10.20
2023-02-23T00:39:21.511Z,10.20
2023-02-23T00:41:49.580Z,10.20
2023-02-23T00:44:16.556Z,10.10
2023-02-23T00:46:44.739Z,10.10
2023-02-23T00:49:14.209Z,10.10
2023-02-23T00:51:41.138Z,10.10
2023-02-23T00:54:08.720Z,10.00
2023-02-23T00:56:35.425Z,10.00
2023-02-23T00:59:02.136Z,10.00
2023-02-23T01:01:28.849Z,10.00
2023-02-23T01:03:55.509Z,10.00
2023-02-23T01:06:22.767Z,10.00
2023-02-23T01:08:51.275Z,10.00
2023-02-23T01:11:22.763Z,10.00
2023-02-23T01:13:53.210Z,10.00
2023-02-23T01:16:22.776Z,10.00
2023-02-23T01:18:49.421Z,10.00
2023-02-23T01:21:22.771Z,10.00
2023-02-23T01:23:51.209Z,9.90
2023-02-23T01:26:38.785Z,9.90
2023-02-23T01:29:08.757Z,9.90
2023-02-23T01:31:37.801Z,9.90
2023-02-23T01:34:06.411Z,9.90
2023-02-23T01:36:36.051Z,9.90
2023-02-23T01:39:06.308Z,9.90
2023-02-23T01:41:35.040Z,9.90
2023-02-23T01:44:08.008Z,9.90
2023-02-23T01:46:39.845Z,9.90
2023-02-23T01:49:09.033Z,9.90
2023-02-23T01:51:42.984Z,9.90
2023-02-23T01:54:15.839Z,9.80
2023-02-23T01:56:45.521Z,9.80
2023-02-23T01:59:15.278Z,9.80
2023-02-23T02:01:43.055Z,9.80
2023-02-23T02:04:16.689Z,9.80
2023-02-23T02:06:46.926Z,9.80
2023-02-23T02:09:17.346Z,9.80
2023-02-23T02:11:46.402Z,9.80
2023-02-23T02:14:20.793Z,9.90
2023-02-23T02:16:56.452Z,9.90
2023-02-23T02:19:28.906Z,9.90
2023-02-23T02:22:25.726Z,9.90
2023-02-23T02:25:11.750Z,9.90
2023-02-23T02:28:18.056Z,9.90
2023-02-23T02:30:56.878Z,9.90
2023-02-23T02:33:32.435Z,9.90
2023-02-23T02:36:21.608Z,9.80
2023-02-23T02:38:58.744Z,9.90
2023-02-23T02:41:53.545Z,9.90
2023-02-23T02:44:36.184Z,9.90
2023-02-23T02:47:09.141Z,9.90
2023-02-23T02:49:50.414Z,9.90
2023-02-23T02:52:20.151Z,9.90
2023-02-23T02:54:56.741Z,9.90
2023-02-23T02:57:27.594Z,9.90
2023-02-23T03:00:13.233Z,9.90
2023-02-23T03:02:59.538Z,9.90
2023-02-23T03:06:01.721Z,9.90
2023-02-23T03:09:12.986Z,9.90
2023-02-23T03:12:05.826Z,9.80
2023-02-23T03:15:04.321Z,9.80
2023-02-23T03:18:03.237Z,9.80
2023-02-23T03:20:51.049Z,9.80
2023-02-23T03:24:15.129Z,9.80
2023-02-23T03:27:15.004Z,9.90
2023-02-23T03:30:17.080Z,9.80
2023-02-23T03:33:08.897Z,9.80
2023-02-23T03:36:01.212Z,9.90
2023-02-23T03:39:11.381Z,9.80
2023-02-23T03:41:59.420Z,9.80
2023-02-23T03:44:49.946Z,9.80
2023-02-23T03:47:37.059Z,9.80
2023-02-23T03:50:27.209Z,9.80
2023-02-23T03:53:16.032Z,9.80
2023-02-23T03:56:09.413Z,9.80
2023-02-23T03:59:00.645Z,9.80
2023-02-23T04:01:47.216Z,9.80
2023-02-23T04:04:32.615Z,9.80
2023-02-23T04:07:21.193Z,9.80
2023-02-23T04:10:07.144Z,9.80
2023-02-23T04:13:00.119Z,9.80
2023-02-23T04:15:32.869Z,9.80
2023-02-23T04:17:59.959Z,9.80
2023-02-23T04:20:27.552Z,9.80
2023-02-23T04:22:54.244Z,9.80
2023-02-23T04:25:24.256Z,9.80
2023-02-23T04:27:51.480Z,9.80
2023-02-23T04:30:18.574Z,9.70
2023-02-23T04:32:45.877Z,9.70
2023-02-23T04:35:13.557Z,9.80
2023-02-23T04:37:40.295Z,9.80
2023-02-23T04:40:07.671Z,9.80
2023-02-23T04:42:34.343Z,9.70
2023-02-23T04:45:00.969Z,9.70
2023-02-23T04:47:27.640Z,9.70
2023-02-23T04:49:54.345Z,9.70
2023-02-23T04:52:20.962Z,9.70
2023-02-23T04:54:48.075Z,9.70
2023-02-23T04:57:14.868Z,9.70
2023-02-23T04:59:41.695Z,9.70
2023-02-23T05:02:08.649Z,9.80
2023-02-23T05:04:35.449Z,9.70
2023-02-23T05:07:03.634Z,9.70
2023-02-23T05:09:31.288Z,9.70
2023-02-23T05:11:57.944Z,9.70
2023-02-23T05:14:24.867Z,9.70
2023-02-23T05:16:51.542Z,9.70
2023-02-23T05:19:18.281Z,9.70
2023-02-23T05:21:45.105Z,9.60
2023-02-23T05:24:11.791Z,9.60
2023-02-23T05:26:38.535Z,9.70
2023-02-23T05:29:06.510Z,9.70
2023-02-23T05:31:33.616Z,9.70
2023-02-23T05:34:00.406Z,9.70
2023-02-23T05:36:27.230Z,9.70
2023-02-23T05:38:54.120Z,9.70
2023-02-23T05:41:22.999Z,9.80
2023-02-23T05:43:53.874Z,9.70
2023-02-23T05:46:26.089Z,9.70
2023-02-23T05:48:59.127Z,9.70
2023-02-23T05:51:27.150Z,9.60
2023-02-23T05:53:54.174Z,9.70
2023-02-23T05:56:21.327Z,9.60
2023-02-23T05:58:49.237Z,9.70
2023-02-23T06:01:17.661Z,9.60
2023-02-23T06:03:45.614Z,9.70
2023-02-23T06:06:12.352Z,9.70
2023-02-23T06:08:39.063Z,9.70
2023-02-23T06:11:06.312Z,9.70
2023-02-23T06:13:33.245Z,9.70
2023-02-23T06:16:00.239Z,9.70
2023-02-23T06:18:27.643Z,9.70
2023-02-23T06:20:54.787Z,9.70
2023-02-23T06:23:21.870Z,9.70
2023-02-23T06:25:48.713Z,9.70
2023-02-23T06:28:15.378Z,9.70
2023-02-23T06:30:42.350Z,9.60
2023-02-23T06:33:09.025Z,9.60
2023-02-23T06:35:36.090Z,9.60
2023-02-23T06:38:03.356Z,9.70
2023-02-23T06:40:30.634Z,9.60
2023-02-23T06:42:57.226Z,9.60
2023-02-23T06:45:24.208Z,9.70
2023-02-23T06:47:50.870Z,9.70
2023-02-23T06:50:17.895Z,9.70
2023-02-23T06:52:45.389Z,9.70
2023-02-23T06:55:13.185Z,9.70
2023-02-23T06:57:41.451Z,9.70
2023-02-23T07:00:08.938Z,9.70
2023-02-23T07:02:37.375Z,9.70
2023-02-23T07:05:04.743Z,9.70
2023-02-23T07:07:32.947Z,9.80
2023-02-23T07:09:59.562Z,9.70
2023-02-23T07:12:26.552Z,9.80
2023-02-23T07:14:53.169Z,9.70
2023-02-23T07:17:19.810Z,9.70
2023-02-23T07:19:46.635Z,9.70
2023-02-23T07:22:13.242Z,9.70
2023-02-23T07:24:39.869Z,9.70
2023-02-23T07:27:06.644Z,9.70
2023-02-23T07:29:33.293Z,9.70
2023-02-23T07:32:00.372Z,9.80
2023-02-23T07:34:27.058Z,9.70
2023-02-23T07:36:53.724Z,9.80
2023-02-23T07:39:20.549Z,9.80
2023-02-23T07:41:47.203Z,9.80
2023-02-23T07:44:13.850Z,9.80
2023-02-23T07:46:41.113Z,9.90
2023-02-23T07:49:07.701Z,9.90
2023-02-23T07:51:34.316Z,9.90
2023-02-23T07:54:05.149Z,9.90
2023-02-23T07:56:33.081Z,9.90
2023-02-23T07:58:59.770Z,9.90
2023-02-23T08:01:26.450Z,9.90
2023-02-23T08:03:53.326Z,9.90
2023-02-23T08:06:20.458Z,9.90
2023-02-23T08:08:47.145Z,10.00
2023-02-23T08:11:13.921Z,10.00
2023-02-23T08:13:40.569Z,10.00
2023-02-23T08:16:07.700Z,10.00
2023-02-23T08:18:34.359Z,9.90
2023-02-23T08:21:02.448Z,10.00
2023-02-23T08:23:33.857Z,10.00
2023-02-23T08:26:02.272Z,10.00
2023-02-23T08:28:30.588Z,10.00
2023-02-23T08:30:57.572Z,10.00
2023-02-23T08:33:24.391Z,10.00
2023-02-23T08:35:53.648Z,10.10
2023-02-23T08:38:20.466Z,10.10
2023-02-23T08:40:47.077Z,10.10
2023-02-23T08:43:13.718Z,10.20
2023-02-23T08:45:40.398Z,10.10
2023-02-23T08:48:07.771Z,10.10
2023-02-23T08:50:34.663Z,10.10
2023-02-23T08:53:01.289Z,10.10
2023-02-23T08:55:27.969Z,10.00
2023-02-23T08:57:54.635Z,10.00
2023-02-23T09:00:21.637Z,9.90
2023-02-23T09:02:48.342Z,10.00
2023-02-23T09:05:15.431Z,10.00
2023-02-23T09:07:45.066Z,10.10
2023-02-23T09:10:17.448Z,10.10
2023-02-23T09:12:44.107Z,10.20
2023-02-23T09:15:11.431Z,10.20
2023-02-23T09:17:38.646Z,10.30
2023-02-23T09:20:05.878Z,10.30
2023-02-23T09:22:32.647Z,10.30
2023-02-23T09:24:59.310Z,10.40
2023-02-23T09:27:25.987Z,10.40
2023-02-23T09:29:52.642Z,10.50
2023-02-23T09:32:19.445Z,10.40
2023-02-23T09:34:47.553Z,10.50
2023-02-23T09:37:14.511Z,10.50
2023-02-23T09:39:41.178Z,10.40
2023-02-23T09:42:14.530Z,10.50
2023-02-23T09:45:04.119Z,10.40
2023-02-23T09:47:45.378Z,10.40
2023-02-23T09:50:22.581Z,10.50
2023-02-23T09:52:55.483Z,10.40
2023-02-23T09:55:22.622Z,10.40
2023-02-23T09:57:51.002Z,10.40
2023-02-23T10:00:27.304Z,10.30
2023-02-23T10:03:05.881Z,10.30
2023-02-23T10:05:41.112Z,10.30
2023-02-23T10:08:18.849Z,10.40
2023-02-23T10:10:52.212Z,10.40
2023-02-23T10:13:48.115Z,10.40
2023-02-23T10:16:32.013Z,10.40
2023-02-23T10:19:10.367Z,10.50
2023-02-23T10:21:41.987Z,10.50
2023-02-23T10:24:35.308Z,10.50
2023-02-23T10:27:13.726Z,10.50
2023-02-23T10:29:46.651Z,10.60
2023-02-23T10:32:38.880Z,10.60
2023-02-23T10:35:15.306Z,10.50
2023-02-23T10:37:41.965Z,10.50
2023-02-23T10:40:16.852Z,10.60
2023-02-23T10:42:43.678Z,10.60
2023-02-23T10:45:24.844Z,10.70
2023-02-23T10:48:05.673Z,10.70
2023-02-23T10:50:33.515Z,10.70
2023-02-23T10:53:24.160Z,10.70
2023-02-23T10:56:01.305Z,10.70
2023-02-23T10:58:28.839Z,10.60
2023-02-23T11:01:01.084Z,10.80
2023-02-23T11:03:35.502Z,10.80
2023-02-23T11:06:02.525Z,10.80
2023-02-23T11:08:34.715Z,10.80
2023-02-23T11:11:17.145Z,10.90
2023-02-23T11:13:46.551Z,11.00
2023-02-23T11:16:17.349Z,10.90
2023-02-23T11:18:57.574Z,11.00
2023-02-23T11:21:33.800Z,11.00
2023-02-23T11:24:19.205Z,10.90
2023-02-23T11:26:49.446Z,10.80
2023-02-23T11:29:38.249Z,10.80
2023-02-23T11:32:32.654Z,10.80
2023-02-23T11:35:21.326Z,10.70
2023-02-23T11:37:50.978Z,10.40
2023-02-23T11:40:22.611Z,10.20
2023-02-23T11:43:09.767Z,10.20
2023-02-23T11:45:49.599Z,10.10
2023-02-23T11:48:38.656Z,10.10
2023-02-23T11:51:05.545Z,10.20
2023-02-23T11:53:36.462Z,10.30
2023-02-23T11:56:12.419Z,10.30
2023-02-23T11:58:44.150Z,10.30
2023-02-23T12:01:16.673Z,10.30
2023-02-23T12:03:55.615Z,10.30
2023-02-23T12:06:41.059Z,10.40
2023-02-23T12:09:26.565Z,10.50
2023-02-23T12:12:06.682Z,10.50
2023-02-23T12:15:09.322Z,10.40
2023-02-23T12:17:45.878Z,10.40
2023-02-23T12:20:21.718Z,10.40
2023-02-23T12:23:12.368Z,10.50
2023-02-23T12:26:02.343Z,10.70
2023-02-23T12:28:37.496Z,10.80
2023-02-23T12:31:23.498Z,10.80
2023-02-23T12:33:59.107Z,10.70
2023-02-23T12:36:47.463Z,10.80
2023-02-23T12:39:35.226Z,10.80
2023-02-23T12:42:30.844Z,10.70
2023-02-23T12:45:02.938Z,10.60
2023-02-23T12:47:42.172Z,10.50
2023-02-23T12:50:22.843Z,10.50
2023-02-23T12:52:53.810Z,10.50
2023-02-23T12:56:05.024Z,10.50
2023-02-23T12:59:13.329Z,10.50
2023-02-23T13:01:54.579Z,10.60
2023-02-23T13:04:40.982Z,10.70
2023-02-23T13:07:16.363Z,10.80
2023-02-23T13:09:45.801Z,10.90
2023-02-23T13:12:41.595Z,11.00
2023-02-23T13:15:21.127Z,11.00
2023-02-23T13:18:06.178Z,11.00
2023-02-23T13:20:42.368Z,11.00
2023-02-23T13:23:22.582Z,10.90
2023-02-23T13:26:10.758Z,10.90
2023-02-23T13:28:47.040Z,10.90
2023-02-23T13:31:25.286Z,11.00
2023-02-23T13:33:54.824Z,11.00
2023-02-23T13:36:22.567Z,11.00
2023-02-23T13:38:54.754Z,10.90
2023-02-23T13:41:39.669Z,10.90
2023-02-23T13:44:34.215Z,11.00
2023-02-23T13:47:06.157Z,11.00
2023-02-23T13:49:45.163Z,11.00
2023-02-23T13:52:30.638Z,10.90
2023-02-23T13:55:03.517Z,10.90
2023-02-23T13:57:31.857Z,10.80
2023-02-23T13:59:59.926Z,10.80
2023-02-23T14:02:34.909Z,10.80
2023-02-23T14:05:04.753Z,10.70
2023-02-23T14:07:33.317Z,10.80
2023-02-23T14:10:08.964Z,10.80
2023-02-23T14:12:38.138Z,10.70
2023-02-23T14:15:29.746Z,10.70
2023-02-23T14:18:15.068Z,10.70
2023-02-23T14:21:09.686Z,10.70
2023-02-23T14:23:50.777Z,10.80
2023-02-23T14:26:36.471Z,10.80
2023-02-23T14:29:25.519Z,10.80
2023-02-23T14:31:57.933Z,10.80
2023-02-23T14:34:48.840Z,10.90
2023-02-23T14:37:40.176Z,11.00
2023-02-23T14:40:21.201Z,11.00
2023-02-23T14:42:51.070Z,11.10
2023-02-23T14:45:30.379Z,11.10
2023-02-23T14:48:04.909Z,11.20
2023-02-23T14:50:36.475Z,11.30
2023-02-23T14:53:04.892Z,11.30
2023-02-23T14:55:35.375Z,11.30
2023-02-23T14:58:04.016Z,11.30
2023-02-23T15:00:33.403Z,11.30
2023-02-23T15:03:05.653Z,11.20
2023-02-23T15:05:41.867Z,11.00
2023-02-23T15:08:12.703Z,10.90
2023-02-23T15:10:43.291Z,10.80
2023-02-23T15:13:26.394Z,10.70
2023-02-23T15:15:55.407Z,10.50
2023-02-23T15:18:29.762Z,10.40
2023-02-23T15:20:56.712Z,10.30
2023-02-23T15:23:23.522Z,10.20
2023-02-23T15:25:51.238Z,10.20
2023-02-23T15:28:29.492Z,10.10
2023-02-23T15:31:00.247Z,10.00
2023-02-23T15:33:30.249Z,10.00
2023-02-23T15:36:08.816Z,10.00
2023-02-23T15:38:45.601Z,9.90
2023-02-23T15:41:29.446Z,9.70
2023-02-23T15:44:04.983Z,9.60
2023-02-23T15:46:34.222Z,9.50
2023-02-23T15:49:03.553Z,9.50
2023-02-23T15:51:35.856Z,9.40
2023-02-23T15:54:13.972Z,9.30
2023-02-23T15:56:40.984Z,9.30
2023-02-23T15:59:15.935Z,9.30
2023-02-23T16:01:45.327Z,9.20
2023-02-23T16:04:14.992Z,9.20
2023-02-23T16:07:16.881Z,9.30
2023-02-23T16:09:54.401Z,9.30
2023-02-23T16:12:31.960Z,9.10
2023-02-23T16:15:02.612Z,9.10
2023-02-23T16:17:44.497Z,9.10
2023-02-23T16:20:23.749Z,9.10
2023-02-23T16:22:54.814Z,9.10
2023-02-23T16:25:25.793Z,9.20
2023-02-23T16:28:00.140Z,9.20
2023-02-23T16:30:40.412Z,9.20
2023-02-23T16:33:30.771Z,9.30
2023-02-23T16:36:14.525Z,9.30
2023-02-23T16:38:41.068Z,9.20
2023-02-23T16:41:21.956Z,9.20
2023-02-23T16:43:50.137Z,9.10
2023-02-23T16:46:17.526Z,9.00
2023-02-23T16:48:44.637Z,9.10
2023-02-23T16:51:19.953Z,9.10
2023-02-23T16:53:46.775Z,9.00
2023-02-23T16:56:17.740Z,8.90
2023-02-23T16:58:47.949Z,8.90
2023-02-23T17:01:17.948Z,8.90
2023-02-23T17:03:52.738Z,8.90
2023-02-23T17:06:20.817Z,8.80
2023-02-23T17:09:03.167Z,8.90
2023-02-23T17:11:29.730Z,8.90
2023-02-23T17:13:56.381Z,8.90
2023-02-23T17:16:23.469Z,8.70
2023-02-23T17:18:50.469Z,8.60
2023-02-23T17:21:23.629Z,8.70
2023-02-23T17:23:51.801Z,8.70
2023-02-23T17:26:22.794Z,8.50
2023-02-23T17:28:49.973Z,8.50
2023-02-23T17:31:19.227Z,8.60
2023-02-23T17:33:47.514Z,8.70
2023-02-23T17:36:16.438Z,8.60
2023-02-23T17:38:44.735Z,8.60
2023-02-23T17:41:19.785Z,8.50
2023-02-23T17:43:46.817Z,8.60
2023-02-23T17:46:13.830Z,8.60
2023-02-23T17:48:49.749Z,8.60
2023-02-23T17:51:16.942Z,8.70
2023-02-23T17:53:44.131Z,8.80
2023-02-23T17:56:11.041Z,8.70
2023-02-23T17:58:38.082Z,8.60
2023-02-23T18:01:06.856Z,8.60
2023-02-23T18:03:35.674Z,8.60
2023-02-23T18:06:05.121Z,8.60
2023-02-23T18:08:32.650Z,8.70
2023-02-23T18:10:59.304Z,8.70
2023-02-23T18:13:27.953Z,8.80
2023-02-23T18:15:59.255Z,8.60
2023-02-23T18:18:26.600Z,8.60
2023-02-23T18:20:55.938Z,8.60
2023-02-23T18:23:24.687Z,8.70
2023-02-23T18:25:51.617Z,8.60
2023-02-23T18:28:18.607Z,8.60
2023-02-23T18:30:45.434Z,8.70
2023-02-23T18:33:13.330Z,8.70
2023-02-23T18:35:44.873Z,8.60
2023-02-23T18:38:12.713Z,8.60
2023-02-23T18:40:39.839Z,8.60
2023-02-23T18:43:06.703Z,8.70
2023-02-23T18:45:33.987Z,8.70
2023-02-23T18:48:00.666Z,8.60
2023-02-23T18:50:27.600Z,8.60
2023-02-23T18:52:55.924Z,8.60
2023-02-23T18:55:23.307Z,8.50
2023-02-23T18:57:52.667Z,8.50
2023-02-23T19:00:20.007Z,8.50
2023-02-23T19:02:47.403Z,8.50
2023-02-23T19:05:15.721Z,8.60
2023-02-23T19:07:42.796Z,8.60
2023-02-23T19:10:14.360Z,8.70
2023-02-23T19:12:41.076Z,8.70
2023-02-23T19:15:08.388Z,8.60
2023-02-23T19:17:36.155Z,8.60
2023-02-23T19:20:07.829Z,8.60
2023-02-23T19:22:35.013Z,8.60
2023-02-23T19:25:01.995Z,8.50
2023-02-23T19:27:28.657Z,8.50
2023-02-23T19:29:55.363Z,8.40
2023-02-23T19:32:22.093Z,8.40
2023-02-23T19:34:48.930Z,8.30
2023-02-23T19:37:15.662Z,8.30
2023-02-23T19:39:42.285Z,8.30
2023-02-23T19:42:09.081Z,8.20
2023-02-23T19:44:35.797Z,8.20
2023-02-23T19:47:02.537Z,8.20
2023-02-23T19:49:29.411Z,8.20
2023-02-23T19:51:57.687Z,8.20
2023-02-23T19:54:26.351Z,8.10
2023-02-23T19:56:53.174Z,8.10
2023-02-23T19:59:19.978Z,8.10
2023-02-23T20:01:46.618Z,8.20
2023-02-23T20:04:13.313Z,8.20
2023-02-23T20:06:44.834Z,8.20
2023-02-23T20:09:11.925Z,8.20
2023-02-23T20:11:40.450Z,8.20
2023-02-23T20:14:08.108Z,8.20
2023-02-23T20:16:36.696Z,8.20
2023-02-23T20:19:05.390Z,8.20
2023-02-23T20:21:32.675Z,8.20
2023-02-23T20:24:01.456Z,8.10
2023-02-23T20:26:31.985Z,8.10
2023-02-23T20:28:58.866Z,8.00
2023-02-23T20:31:34.891Z,7.90
2023-02-23T20:34:06.767Z,7.90
2023-02-23T20:36:33.661Z,7.80
2023-02-23T20:39:00.414Z,7.70
2023-02-23T20:41:32.049Z,7.70
2023-02-23T20:44:00.803Z,7.60
2023-02-23T20:46:30.297Z,7.50
2023-02-23T20:48:57.175Z,7.40
2023-02-23T20:51:23.809Z,7.40
2023-02-23T20:53:50.392Z,7.30
2023-02-23T20:56:19.300Z,7.20
2023-02-23T20:58:46.826Z,7.20
2023-02-23T21:01:15.704Z,7.10
2023-02-23T21:03:42.513Z,7.10
2023-02-23T21:06:09.213Z,7.00
2023-02-23T21:08:39.903Z,7.00
2023-02-23T21:11:07.747Z,6.90
2023-02-23T21:13:35.162Z,6.80
2023-02-23T21:16:03.068Z,6.80
2023-02-23T21:18:30.818Z,6.80
2023-02-23T21:20:59.321Z,6.70
2023-02-23T21:23:25.961Z,6.70
2023-02-23T21:25:53.128Z,6.70
2023-02-23T21:28:20.689Z,6.70
2023-02-23T21:30:47.674Z,6.60
2023-02-23T21:33:14.934Z,6.50
2023-02-23T21:35:41.590Z,6.50
2023-02-23T21:38:08.456Z,6.50
2023-02-23T21:40:35.691Z,6.40
2023-02-23T21:43:06.574Z,6.40
2023-02-23T21:45:33.264Z,6.30
2023-02-23T21:48:00.017Z,6.30
2023-02-23T21:50:26.942Z,6.30
2023-02-23T21:52:56.063Z,6.20
2023-02-23T21:55:22.969Z,6.20
2023-02-23T21:57:51.131Z,6.10
2023-02-23T22:00:20.670Z,6.00
2023-02-23T22:02:47.806Z,5.90
2023-02-23T22:05:16.285Z,5.90
2023-02-23T22:07:50.696Z,5.90
2023-02-23T22:10:19.900Z,5.80
2023-02-23T22:12:46.828Z,5.80
2023-02-23T22:15:15.838Z,5.70
2023-02-23T22:17:44.048Z,5.70
2023-02-23T22:20:11.883Z,5.70
2023-02-23T22:22:38.660Z,5.60
2023-02-23T22:25:07.130Z,5.50
2023-02-23T22:27:33.979Z,5.50
2023-02-23T22:30:01.517Z,5.50
2023-02-23T22:32:32.673Z,5.40
2023-02-23T22:35:00.677Z,5.30
2023-02-23T22:37:31.594Z,5.20
2023-02-23T22:40:01.376Z,5.10
2023-02-23T22:42:35.364Z,5.00
2023-02-23T22:45:02.145Z,5.00
2023-02-23T22:47:29.020Z,5.00
2023-02-23T22:49:55.757Z,4.90
2023-02-23T22:52:22.510Z,4.90
2023-02-23T22:54:51.262Z,4.90
2023-02-23T22:57:18.061Z,4.90
2023-02-23T22:59:54.691Z,4.80
2023-02-23T23:02:22.734Z,4.80
2023-02-23T23:04:49.656Z,4.80
2023-02-23T23:07:19.934Z,4.70
2023-02-23T23:09:47.015Z,4.70
2023-02-23T23:12:13.771Z,4.60
2023-02-23T23:14:40.605Z,4.50
2023-02-23T23:17:09.524Z,4.40
2023-02-23T23:19:39.296Z,4.40
2023-02-23T23:22:06.504Z,4.40
2023-02-23T23:24:33.256Z,4.30
2023-02-23T23:27:01.000Z,4.20
2023-02-23T23:29:30.272Z,4.20
2023-02-23T23:31:57.404Z,4.20
2023-02-23T23:34:25.241Z,4.20
2023-02-23T23:36:53.159Z,4.20
2023-02-23T23:39:22.896Z,4.10
2023-02-23T23:41:50.336Z,4.10
2023-02-23T23:44:20.330Z,4.10
2023-02-23T23:46:50.698Z,4.10
2023-02-23T23:49:20.279Z,4.00
2023-02-23T23:51:50.509Z,4.00
2023-02-23T23:54:21.510Z,4.00
2023-02-23T23:56:49.597Z,4.10
2023-02-23T23:59:20.559Z,4.10
